sensor_id;sensor_type;location;lat;lon;timestamp;pressure;altitude;pressure_sealevel;temperature;humidity
40460;BME280;26164;51.138;16.952;2022-12-18T00:01:27;79823.69;;;-146.39;100.00
40460;BME280;26164;51.138;16.952;2022-12-18T00:03:57;79831.84;;;-146.39;100.00
40460;BME280;26164;51.138;16.952;2022-12-18T00:06:29;79811.41;;;-146.39;100.00
40460;BME280;26164;51.138;16.952;2022-12-18T00:08:58;79790.97;;;-146.39;100.00
40460;BME280;26164;51.138;16.952;2022-12-18T00:11:28;79790.97;;;-146.39;100.00
40460;BME280;26164;51.138;16.952;2022-12-18T00:13:56;79786.91;;;-146.39;100.00
40460;BME280;26164;51.138;16.952;2022-12-18T00:16:24;79817.53;;;-146.39;100.00
40460;BME280;26164;51.138;16.952;2022-12-18T00:18:56;79795.06;;;-146.39;100.00
40460;BME280;26164;51.138;16.952;2022-12-18T00:21:30;79809.38;;;-146.39;100.00
40460;BME280;26164;51.138;16.952;2022-12-18T00:23:59;79819.59;;;-146.39;100.00
40460;BME280;26164;51.138;16.952;2022-12-18T00:26:29;79819.59;;;-146.39;100.00
40460;BME280;26164;51.138;16.952;2022-12-18T00:29:02;79811.41;;;-146.39;100.00
40460;BME280;26164;51.138;16.952;2022-12-18T00:31:30;79835.94;;;-146.39;100.00
40460;BME280;26164;51.138;16.952;2022-12-18T00:33:56;79823.69;;;-146.39;100.00
40460;BME280;26164;51.138;16.952;2022-12-18T00:36:26;79827.75;;;-146.39;100.00
40460;BME280;26164;51.138;16.952;2022-12-18T00:38:54;79827.75;;;-146.39;100.00
40460;BME280;26164;51.138;16.952;2022-12-18T00:41:23;79833.88;;;-146.39;100.00
40460;BME280;26164;51.138;16.952;2022-12-18T00:44:11;79831.84;;;-146.39;100.00
40460;BME280;26164;51.138;16.952;2022-12-18T00:46:38;79821.63;;;-146.39;100.00
40460;BME280;26164;51.138;16.952;2022-12-18T00:49:04;79827.75;;;-146.39;100.00
40460;BME280;26164;51.138;16.952;2022-12-18T00:51:31;79827.75;;;-146.39;100.00
40460;BME280;26164;51.138;16.952;2022-12-18T00:53:57;79827.75;;;-146.39;100.00
40460;BME280;26164;51.138;16.952;2022-12-18T00:56:24;79833.88;;;-146.39;100.00
40460;BME280;26164;51.138;16.952;2022-12-18T00:58:50;79815.50;;;-146.39;100.00
40460;BME280;26164;51.138;16.952;2022-12-18T01:01:17;79807.31;;;-146.39;100.00
40460;BME280;26164;51.138;16.952;2022-12-18T01:03:45;79823.69;;;-146.39;100.00
40460;BME280;26164;51.138;16.952;2022-12-18T01:06:14;79829.81;;;-146.39;100.00
40460;BME280;26164;51.138;16.952;2022-12-18T01:08:40;79811.41;;;-146.39;100.00
40460;BME280;26164;51.138;16.952;2022-12-18T01:11:16;79825.72;;;-146.39;100.00
40460;BME280;26164;51.138;16.952;2022-12-18T01:13:42;79819.59;;;-146.39;100.00
40460;BME280;26164;51.138;16.952;2022-12-18T01:16:11;79807.31;;;-146.39;100.00
40460;BME280;26164;51.138;16.952;2022-12-18T01:18:38;79815.50;;;-146.39;100.00
40460;BME280;26164;51.138;16.952;2022-12-18T01:21:09;79799.16;;;-146.39;100.00
40460;BME280;26164;51.138;16.952;2022-12-18T01:23:36;79807.31;;;-146.39;100.00
40460;BME280;26164;51.138;16.952;2022-12-18T01:26:12;79809.38;;;-146.39;100.00
40460;BME280;26164;51.138;16.952;2022-12-18T01:28:39;79809.38;;;-146.39;100.00
40460;BME280;26164;51.138;16.952;2022-12-18T01:31:13;79809.38;;;-146.39;100.00
40460;BME280;26164;51.138;16.952;2022-12-18T01:33:40;79807.31;;;-146.39;100.00
40460;BME280;26164;51.138;16.952;2022-12-18T01:36:07;79819.59;;;-146.39;100.00
40460;BME280;26164;51.138;16.952;2022-12-18T01:38:33;79819.59;;;-146.39;100.00
40460;BME280;26164;51.138;16.952;2022-12-18T01:41:01;79819.59;;;-146.39;100.00
40460;BME280;26164;51.138;16.952;2022-12-18T01:43:52;79823.69;;;-146.39;100.00
40460;BME280;26164;51.138;16.952;2022-12-18T01:46:22;79821.63;;;-146.39;100.00
40460;BME280;26164;51.138;16.952;2022-12-18T01:48:59;79827.75;;;-146.39;100.00
40460;BME280;26164;51.138;16.952;2022-12-18T01:51:29;79811.41;;;-146.39;100.00
40460;BME280;26164;51.138;16.952;2022-12-18T01:53:58;79835.94;;;-146.39;100.00
40460;BME280;26164;51.138;16.952;2022-12-18T01:56:26;79827.75;;;-146.39;100.00
40460;BME280;26164;51.138;16.952;2022-12-18T01:59:00;79831.84;;;-146.39;100.00
40460;BME280;26164;51.138;16.952;2022-12-18T02:01:32;79844.09;;;-146.39;100.00
40460;BME280;26164;51.138;16.952;2022-12-18T02:04:22;79827.75;;;-146.39;100.00
40460;BME280;26164;51.138;16.952;2022-12-18T02:07:03;79844.09;;;-146.39;100.00
40460;BME280;26164;51.138;16.952;2022-12-18T02:09:47;79827.75;;;-146.39;100.00
40460;BME280;26164;51.138;16.952;2022-12-18T02:13:09;79807.31;;;-146.39;100.00
40460;BME280;26164;51.138;16.952;2022-12-18T02:17:54;79784.84;;;-146.39;100.00
40460;BME280;26164;51.138;16.952;2022-12-18T02:26:24;79815.50;;;-146.39;100.00
40460;BME280;26164;51.138;16.952;2022-12-18T02:31:43;79815.50;;;-146.39;100.00
40460;BME280;26164;51.138;16.952;2022-12-18T02:34:12;79823.69;;;-146.39;100.00
40460;BME280;26164;51.138;16.952;2022-12-18T02:36:41;79813.47;;;-146.39;100.00
40460;BME280;26164;51.138;16.952;2022-12-18T02:39:11;79819.59;;;-146.39;100.00
40460;BME280;26164;51.138;16.952;2022-12-18T02:41:47;79803.25;;;-146.39;100.00
40460;BME280;26164;51.138;16.952;2022-12-18T02:44:14;79827.75;;;-146.39;100.00
40460;BME280;26164;51.138;16.952;2022-12-18T02:46:46;79837.97;;;-146.39;100.00
40460;BME280;26164;51.138;16.952;2022-12-18T02:54:57;79803.25;;;-146.39;100.00
40460;BME280;26164;51.138;16.952;2022-12-18T02:57:35;79807.31;;;-146.39;100.00
40460;BME280;26164;51.138;16.952;2022-12-18T03:00:16;79797.13;;;-146.39;100.00
40460;BME280;26164;51.138;16.952;2022-12-18T03:02:57;79799.16;;;-146.39;100.00
40460;BME280;26164;51.138;16.952;2022-12-18T03:05:31;79799.16;;;-146.39;100.00
40460;BME280;26164;51.138;16.952;2022-12-18T03:08:07;79811.41;;;-146.39;100.00
40460;BME280;26164;51.138;16.952;2022-12-18T03:11:20;79823.69;;;-146.39;100.00
40460;BME280;26164;51.138;16.952;2022-12-18T03:13:46;79809.38;;;-146.39;100.00
40460;BME280;26164;51.138;16.952;2022-12-18T03:16:24;79799.16;;;-146.39;100.00
40460;BME280;26164;51.138;16.952;2022-12-18T03:19:10;79811.41;;;-146.39;100.00
40460;BME280;26164;51.138;16.952;2022-12-18T03:21:44;79815.50;;;-146.39;100.00
40460;BME280;26164;51.138;16.952;2022-12-18T03:24:17;79805.28;;;-146.39;100.00
40460;BME280;26164;51.138;16.952;2022-12-18T03:26:45;79799.16;;;-146.39;100.00
40460;BME280;26164;51.138;16.952;2022-12-18T03:29:21;79782.81;;;-146.39;100.00
40460;BME280;26164;51.138;16.952;2022-12-18T03:31:49;79782.81;;;-146.39;100.00
40460;BME280;26164;51.138;16.952;2022-12-18T03:34:23;79790.97;;;-146.39;100.00
40460;BME280;26164;51.138;16.952;2022-12-18T03:36:53;79786.91;;;-146.39;100.00
40460;BME280;26164;51.138;16.952;2022-12-18T03:39:23;79786.91;;;-146.39;100.00
40460;BME280;26164;51.138;16.952;2022-12-18T03:44:54;79805.28;;;-146.39;100.00
40460;BME280;26164;51.138;16.952;2022-12-18T03:47:32;79811.41;;;-146.39;100.00
40460;BME280;26164;51.138;16.952;2022-12-18T03:50:12;79819.59;;;-146.39;100.00
40460;BME280;26164;51.138;16.952;2022-12-18T03:53:13;79852.28;;;-146.39;100.00
40460;BME280;26164;51.138;16.952;2022-12-18T03:55:47;79831.84;;;-146.39;100.00
40460;BME280;26164;51.138;16.952;2022-12-18T03:58:18;79827.75;;;-146.39;100.00
40460;BME280;26164;51.138;16.952;2022-12-18T04:00:56;79848.19;;;-146.39;100.00
40460;BME280;26164;51.138;16.952;2022-12-18T04:03:26;79848.19;;;-146.39;100.00
40460;BME280;26164;51.138;16.952;2022-12-18T04:05:58;79852.28;;;-146.39;100.00
40460;BME280;26164;51.138;16.952;2022-12-18T04:08:27;79856.38;;;-146.39;100.00
40460;BME280;26164;51.138;16.952;2022-12-18T04:11:02;79852.28;;;-146.39;100.00
40460;BME280;26164;51.138;16.952;2022-12-18T04:13:34;79848.19;;;-146.39;100.00
40460;BME280;26164;51.138;16.952;2022-12-18T04:16:02;79848.19;;;-146.39;100.00
40460;BME280;26164;51.138;16.952;2022-12-18T04:18:28;79856.38;;;-146.39;100.00
40460;BME280;26164;51.138;16.952;2022-12-18T04:20:55;79866.59;;;-146.39;100.00
40460;BME280;26164;51.138;16.952;2022-12-18T04:23:22;79870.66;;;-146.39;100.00
40460;BME280;26164;51.138;16.952;2022-12-18T04:25:48;79880.88;;;-146.39;100.00
40460;BME280;26164;51.138;16.952;2022-12-18T04:28:21;79889.06;;;-146.39;100.00
40460;BME280;26164;51.138;16.952;2022-12-18T04:30:47;79880.88;;;-146.39;100.00
40460;BME280;26164;51.138;16.952;2022-12-18T04:33:13;79884.97;;;-146.39;100.00
40460;BME280;26164;51.138;16.952;2022-12-18T04:35:41;79866.59;;;-146.39;100.00
40460;BME280;26164;51.138;16.952;2022-12-18T04:38:08;79868.63;;;-146.39;100.00
40460;BME280;26164;51.138;16.952;2022-12-18T04:40:37;79882.94;;;-146.39;100.00
40460;BME280;26164;51.138;16.952;2022-12-18T04:43:08;79872.72;;;-146.39;100.00
40460;BME280;26164;51.138;16.952;2022-12-18T04:45:35;79870.66;;;-146.39;100.00
40460;BME280;26164;51.138;16.952;2022-12-18T04:48:02;79866.59;;;-146.39;100.00
40460;BME280;26164;51.138;16.952;2022-12-18T04:50:29;79884.97;;;-146.39;100.00
40460;BME280;26164;51.138;16.952;2022-12-18T04:52:55;79897.22;;;-146.39;100.00
40460;BME280;26164;51.138;16.952;2022-12-18T04:55:25;79901.31;;;-146.39;100.00
40460;BME280;26164;51.138;16.952;2022-12-18T04:57:53;79913.56;;;-146.39;100.00
40460;BME280;26164;51.138;16.952;2022-12-18T05:00:19;79905.41;;;-146.39;100.00
40460;BME280;26164;51.138;16.952;2022-12-18T05:02:45;79899.28;;;-146.39;100.00
40460;BME280;26164;51.138;16.952;2022-12-18T05:05:11;79909.50;;;-146.39;100.00
40460;BME280;26164;51.138;16.952;2022-12-18T05:07:37;79925.84;;;-146.39;100.00
40460;BME280;26164;51.138;16.952;2022-12-18T05:10:03;79921.75;;;-146.39;100.00
40460;BME280;26164;51.138;16.952;2022-12-18T05:12:32;79929.91;;;-146.39;100.00
40460;BME280;26164;51.138;16.952;2022-12-18T05:14:59;79938.09;;;-146.39;100.00
40460;BME280;26164;51.138;16.952;2022-12-18T05:17:24;79934.00;;;-146.39;100.00
40460;BME280;26164;51.138;16.952;2022-12-18T05:19:50;79921.75;;;-146.39;100.00
40460;BME280;26164;51.138;16.952;2022-12-18T05:22:16;79931.97;;;-146.39;100.00
40460;BME280;26164;51.138;16.952;2022-12-18T05:24:42;79929.91;;;-146.39;100.00
40460;BME280;26164;51.138;16.952;2022-12-18T05:27:08;79927.88;;;-146.39;100.00
40460;BME280;26164;51.138;16.952;2022-12-18T05:29:34;79931.97;;;-146.39;100.00
40460;BME280;26164;51.138;16.952;2022-12-18T05:32:00;79946.25;;;-146.39;100.00
40460;BME280;26164;51.138;16.952;2022-12-18T05:34:26;79950.34;;;-146.39;100.00
40460;BME280;26164;51.138;16.952;2022-12-18T05:36:54;79946.25;;;-146.39;100.00
40460;BME280;26164;51.138;16.952;2022-12-18T05:39:20;79942.19;;;-146.39;100.00
40460;BME280;26164;51.138;16.952;2022-12-18T05:41:46;79946.25;;;-146.39;100.00
40460;BME280;26164;51.138;16.952;2022-12-18T05:44:12;79946.25;;;-146.39;100.00
40460;BME280;26164;51.138;16.952;2022-12-18T05:46:40;79960.56;;;-146.39;100.00
40460;BME280;26164;51.138;16.952;2022-12-18T05:49:06;79944.22;;;-146.39;100.00
40460;BME280;26164;51.138;16.952;2022-12-18T05:51:32;79966.69;;;-146.39;100.00
40460;BME280;26164;51.138;16.952;2022-12-18T05:54:02;79974.88;;;-146.39;100.00
40460;BME280;26164;51.138;16.952;2022-12-18T05:56:28;79974.88;;;-146.39;100.00
40460;BME280;26164;51.138;16.952;2022-12-18T05:59:06;79999.38;;;-146.39;100.00
40460;BME280;26164;51.138;16.952;2022-12-18T06:01:51;79983.03;;;-146.39;100.00
40460;BME280;26164;51.138;16.952;2022-12-18T06:04:29;79993.25;;;-146.39;100.00
40460;BME280;26164;51.138;16.952;2022-12-18T06:07:13;79995.31;;;-146.39;100.00
40460;BME280;26164;51.138;16.952;2022-12-18T06:09:51;79991.22;;;-146.39;100.00
40460;BME280;26164;51.138;16.952;2022-12-18T06:12:21;79989.16;;;-146.39;100.00
40460;BME280;26164;51.138;16.952;2022-12-18T06:14:47;79989.16;;;-146.39;100.00
40460;BME280;26164;51.138;16.952;2022-12-18T06:17:14;79991.22;;;-146.39;100.00
40460;BME280;26164;51.138;16.952;2022-12-18T06:19:40;79999.38;;;-146.39;100.00
40460;BME280;26164;51.138;16.952;2022-12-18T06:22:05;80007.56;;;-146.39;100.00
40460;BME280;26164;51.138;16.952;2022-12-18T06:24:31;80007.56;;;-146.39;100.00
40460;BME280;26164;51.138;16.952;2022-12-18T06:26:58;80011.66;;;-146.39;100.00
40460;BME280;26164;51.138;16.952;2022-12-18T06:29:24;80011.66;;;-146.39;100.00
40460;BME280;26164;51.138;16.952;2022-12-18T06:31:50;80003.47;;;-146.39;100.00
40460;BME280;26164;51.138;16.952;2022-12-18T06:34:16;79999.38;;;-146.39;100.00
40460;BME280;26164;51.138;16.952;2022-12-18T06:36:41;80005.53;;;-146.39;100.00
40460;BME280;26164;51.138;16.952;2022-12-18T06:39:07;80015.75;;;-146.39;100.00
40460;BME280;26164;51.138;16.952;2022-12-18T06:41:33;80023.91;;;-146.39;100.00
40460;BME280;26164;51.138;16.952;2022-12-18T06:43:59;80032.09;;;-146.39;100.00
40460;BME280;26164;51.138;16.952;2022-12-18T06:46:25;80023.91;;;-146.39;100.00
40460;BME280;26164;51.138;16.952;2022-12-18T06:48:51;80023.91;;;-146.39;100.00
40460;BME280;26164;51.138;16.952;2022-12-18T06:51:21;80019.81;;;-146.39;100.00
40460;BME280;26164;51.138;16.952;2022-12-18T06:53:48;80023.91;;;-146.39;100.00
40460;BME280;26164;51.138;16.952;2022-12-18T06:56:14;80044.34;;;-146.39;100.00
40460;BME280;26164;51.138;16.952;2022-12-18T06:58:40;80048.44;;;-146.39;100.00
40460;BME280;26164;51.138;16.952;2022-12-18T07:01:09;80052.50;;;-146.39;100.00
40460;BME280;26164;51.138;16.952;2022-12-18T07:03:36;80050.47;;;-146.39;100.00
40460;BME280;26164;51.138;16.952;2022-12-18T07:06:02;80042.31;;;-146.39;100.00
40460;BME280;26164;51.138;16.952;2022-12-18T07:08:37;80060.69;;;-146.39;100.00
40460;BME280;26164;51.138;16.952;2022-12-18T07:11:19;80044.34;;;-146.39;100.00
40460;BME280;26164;51.138;16.952;2022-12-18T07:14:01;80060.69;;;-146.39;100.00
40460;BME280;26164;51.138;16.952;2022-12-18T07:16:42;80052.50;;;-146.39;100.00
40460;BME280;26164;51.138;16.952;2022-12-18T07:19:08;80048.44;;;-146.39;100.00
40460;BME280;26164;51.138;16.952;2022-12-18T07:21:33;80052.50;;;-146.39;100.00
40460;BME280;26164;51.138;16.952;2022-12-18T07:24:00;80044.34;;;-146.39;100.00
40460;BME280;26164;51.138;16.952;2022-12-18T07:26:29;80032.09;;;-146.39;100.00
40460;BME280;26164;51.138;16.952;2022-12-18T07:28:56;80042.31;;;-146.39;100.00
40460;BME280;26164;51.138;16.952;2022-12-18T07:31:23;80036.16;;;-146.39;100.00
40460;BME280;26164;51.138;16.952;2022-12-18T07:33:50;80036.16;;;-146.39;100.00
40460;BME280;26164;51.138;16.952;2022-12-18T07:36:16;80042.31;;;-146.39;100.00
40460;BME280;26164;51.138;16.952;2022-12-18T07:38:43;80042.31;;;-146.39;100.00
40460;BME280;26164;51.138;16.952;2022-12-18T07:41:11;80036.16;;;-146.39;100.00
40460;BME280;26164;51.138;16.952;2022-12-18T07:43:39;80025.94;;;-146.39;100.00
40460;BME280;26164;51.138;16.952;2022-12-18T07:46:05;80032.09;;;-146.39;100.00
40460;BME280;26164;51.138;16.952;2022-12-18T07:48:31;80023.91;;;-146.39;100.00
40460;BME280;26164;51.138;16.952;2022-12-18T07:51:05;80023.91;;;-146.39;100.00
40460;BME280;26164;51.138;16.952;2022-12-18T07:54:54;80034.13;;;-146.39;100.00
40460;BME280;26164;51.138;16.952;2022-12-18T07:57:55;80032.09;;;-146.39;100.00
40460;BME280;26164;51.138;16.952;2022-12-18T08:01:09;80040.25;;;-146.39;100.00
40460;BME280;26164;51.138;16.952;2022-12-18T08:03:36;80034.13;;;-146.39;100.00
40460;BME280;26164;51.138;16.952;2022-12-18T08:06:04;80040.25;;;-146.39;100.00
40460;BME280;26164;51.138;16.952;2022-12-18T08:08:34;80032.09;;;-146.39;100.00
40460;BME280;26164;51.138;16.952;2022-12-18T08:11:00;80048.44;;;-146.39;100.00
40460;BME280;26164;51.138;16.952;2022-12-18T08:13:26;80036.16;;;-146.39;100.00
40460;BME280;26164;51.138;16.952;2022-12-18T08:16:00;80025.94;;;-146.39;100.00
40460;BME280;26164;51.138;16.952;2022-12-18T08:18:27;80023.91;;;-146.39;100.00
40460;BME280;26164;51.138;16.952;2022-12-18T08:20:54;80030.03;;;-146.39;100.00
40460;BME280;26164;51.138;16.952;2022-12-18T08:23:21;80023.91;;;-146.39;100.00
40460;BME280;26164;51.138;16.952;2022-12-18T08:25:47;80023.91;;;-146.39;100.00
40460;BME280;26164;51.138;16.952;2022-12-18T08:28:13;80040.25;;;-146.39;100.00
40460;BME280;26164;51.138;16.952;2022-12-18T08:30:39;80050.47;;;-146.39;100.00
40460;BME280;26164;51.138;16.952;2022-12-18T08:33:05;80060.69;;;-146.39;100.00
40460;BME280;26164;51.138;16.952;2022-12-18T08:35:35;80064.78;;;-146.39;100.00
40460;BME280;26164;51.138;16.952;2022-12-18T08:38:01;80036.16;;;-146.39;100.00
40460;BME280;26164;51.138;16.952;2022-12-18T08:40:27;80021.88;;;-146.39;100.00
40460;BME280;26164;51.138;16.952;2022-12-18T08:42:53;80023.91;;;-146.39;100.00
40460;BME280;26164;51.138;16.952;2022-12-18T08:45:37;80009.59;;;-146.39;100.00
40460;BME280;26164;51.138;16.952;2022-12-18T08:48:03;80007.56;;;-146.39;100.00
40460;BME280;26164;51.138;16.952;2022-12-18T08:50:29;80011.66;;;-146.39;100.00
40460;BME280;26164;51.138;16.952;2022-12-18T08:53:24;80011.66;;;-146.39;100.00
40460;BME280;26164;51.138;16.952;2022-12-18T08:55:50;80023.91;;;-146.39;100.00
40460;BME280;26164;51.138;16.952;2022-12-18T08:58:18;80007.56;;;-146.39;100.00
40460;BME280;26164;51.138;16.952;2022-12-18T09:00:44;80007.56;;;-146.39;100.00
40460;BME280;26164;51.138;16.952;2022-12-18T09:03:18;79987.13;;;-146.39;100.00
40460;BME280;26164;51.138;16.952;2022-12-18T09:05:47;79974.88;;;-146.39;100.00
40460;BME280;26164;51.138;16.952;2022-12-18T09:08:14;79960.56;;;-146.39;100.00
40460;BME280;26164;51.138;16.952;2022-12-18T09:10:44;79938.09;;;-146.39;100.00
40460;BME280;26164;51.138;16.952;2022-12-18T09:13:15;79966.69;;;-146.39;100.00
40460;BME280;26164;51.138;16.952;2022-12-18T09:15:42;79946.25;;;-146.39;100.00
40460;BME280;26164;51.138;16.952;2022-12-18T09:18:09;79938.09;;;-146.39;100.00
40460;BME280;26164;51.138;16.952;2022-12-18T09:20:36;79954.44;;;-146.39;100.00
40460;BME280;26164;51.138;16.952;2022-12-18T09:23:03;79991.22;;;-146.39;100.00
40460;BME280;26164;51.138;16.952;2022-12-18T09:25:30;79950.34;;;-146.39;100.00
40460;BME280;26164;51.138;16.952;2022-12-18T09:27:59;79905.41;;;-146.39;100.00
40460;BME280;26164;51.138;16.952;2022-12-18T09:30:26;79903.34;;;-146.39;100.00
40460;BME280;26164;51.138;16.952;2022-12-18T09:32:52;79889.06;;;-146.39;100.00
40460;BME280;26164;51.138;16.952;2022-12-18T09:35:18;79913.56;;;-146.39;100.00
40460;BME280;26164;51.138;16.952;2022-12-18T09:37:44;79897.22;;;-146.39;100.00
40460;BME280;26164;51.138;16.952;2022-12-18T09:40:21;79872.72;;;-146.39;100.00
40460;BME280;26164;51.138;16.952;2022-12-18T09:42:53;79884.97;;;-146.39;100.00
40460;BME280;26164;51.138;16.952;2022-12-18T09:45:21;79880.88;;;-146.39;100.00
40460;BME280;26164;51.138;16.952;2022-12-18T09:47:49;79884.97;;;-146.39;100.00
40460;BME280;26164;51.138;16.952;2022-12-18T09:50:26;79882.94;;;-146.39;100.00
40460;BME280;26164;51.138;16.952;2022-12-18T09:52:56;79872.72;;;-146.39;100.00
40460;BME280;26164;51.138;16.952;2022-12-18T09:55:41;79860.44;;;-146.39;100.00
40460;BME280;26164;51.138;16.952;2022-12-18T09:58:17;79860.44;;;-146.39;100.00
40460;BME280;26164;51.138;16.952;2022-12-18T10:00:44;79850.22;;;-146.39;100.00
40460;BME280;26164;51.138;16.952;2022-12-18T10:03:14;79874.75;;;-146.39;100.00
40460;BME280;26164;51.138;16.952;2022-12-18T10:11:01;79878.84;;;-146.39;100.00
40460;BME280;26164;51.138;16.952;2022-12-18T10:13:35;79938.09;;;-146.39;100.00
40460;BME280;26164;51.138;16.952;2022-12-18T10:16:27;79929.91;;;-146.39;100.00
40460;BME280;26164;51.138;16.952;2022-12-18T10:19:04;79913.56;;;-146.39;100.00
40460;BME280;26164;51.138;16.952;2022-12-18T10:21:57;79897.22;;;-146.39;100.00
40460;BME280;26164;51.138;16.952;2022-12-18T10:24:37;79931.97;;;-146.39;100.00
40460;BME280;26164;51.138;16.952;2022-12-18T10:27:14;79938.09;;;-146.39;100.00
40460;BME280;26164;51.138;16.952;2022-12-18T10:29:42;79942.19;;;-146.39;100.00
40460;BME280;26164;51.138;16.952;2022-12-18T10:32:20;79925.84;;;-146.39;100.00
40460;BME280;26164;51.138;16.952;2022-12-18T10:34:48;79966.69;;;-146.39;100.00
40460;BME280;26164;51.138;16.952;2022-12-18T10:37:21;79983.03;;;-146.39;100.00
40460;BME280;26164;51.138;16.952;2022-12-18T10:42:31;79913.56;;;-146.39;100.00
40460;BME280;26164;51.138;16.952;2022-12-18T10:45:10;79909.50;;;-146.39;100.00
40460;BME280;26164;51.138;16.952;2022-12-18T10:47:42;79895.19;;;-146.39;100.00
40460;BME280;26164;51.138;16.952;2022-12-18T10:50:39;79913.56;;;-146.39;100.00
40460;BME280;26164;51.138;16.952;2022-12-18T10:53:05;79960.56;;;-146.39;100.00
40460;BME280;26164;51.138;16.952;2022-12-18T10:55:35;79946.25;;;-146.39;100.00
40460;BME280;26164;51.138;16.952;2022-12-18T11:06:07;79872.72;;;-146.39;100.00
40460;BME280;26164;51.138;16.952;2022-12-18T11:08:33;79901.31;;;-146.39;100.00
40460;BME280;26164;51.138;16.952;2022-12-18T11:11:00;79909.50;;;-146.39;100.00
40460;BME280;26164;51.138;16.952;2022-12-18T11:13:28;79952.41;;;-146.39;100.00
40460;BME280;26164;51.138;16.952;2022-12-18T11:15:55;79974.88;;;-146.39;100.00
40460;BME280;26164;51.138;16.952;2022-12-18T11:18:34;79938.09;;;-146.39;100.00
40460;BME280;26164;51.138;16.952;2022-12-18T11:21:10;79942.19;;;-146.39;100.00
40460;BME280;26164;51.138;16.952;2022-12-18T11:23:50;79978.97;;;-146.39;100.00
40460;BME280;26164;51.138;16.952;2022-12-18T11:26:17;79942.19;;;-146.39;100.00
40460;BME280;26164;51.138;16.952;2022-12-18T11:31:28;79942.19;;;-146.39;100.00
40460;BME280;26164;51.138;16.952;2022-12-18T11:36:45;79938.09;;;-146.39;100.00
40460;BME280;26164;51.138;16.952;2022-12-18T11:39:18;79915.63;;;-146.39;100.00
40460;BME280;26164;51.138;16.952;2022-12-18T11:41:50;79907.44;;;-146.39;100.00
40460;BME280;26164;51.138;16.952;2022-12-18T11:47:28;79911.53;;;-146.39;100.00
40460;BME280;26164;51.138;16.952;2022-12-18T11:50:01;79940.13;;;-146.39;100.00
40460;BME280;26164;51.138;16.952;2022-12-18T11:52:47;79966.69;;;-146.39;100.00
40460;BME280;26164;51.138;16.952;2022-12-18T11:55:21;79946.25;;;-146.39;100.00
40460;BME280;26164;51.138;16.952;2022-12-18T12:01:22;79893.13;;;-146.39;100.00
40460;BME280;26164;51.138;16.952;2022-12-18T12:06:23;79909.50;;;-146.39;100.00
40460;BME280;26164;51.138;16.952;2022-12-18T12:12:14;79946.25;;;-146.39;100.00
40460;BME280;26164;51.138;16.952;2022-12-18T12:15:11;79917.66;;;-146.39;100.00
40460;BME280;26164;51.138;16.952;2022-12-18T12:17:55;79921.75;;;-146.39;100.00
40460;BME280;26164;51.138;16.952;2022-12-18T12:23:06;79868.63;;;-146.39;100.00
40460;BME280;26164;51.138;16.952;2022-12-18T12:26:07;79884.97;;;-146.39;100.00
40460;BME280;26164;51.138;16.952;2022-12-18T12:34:37;79880.88;;;-146.39;100.00
40460;BME280;26164;51.138;16.952;2022-12-18T12:39:34;79938.09;;;-146.39;100.00
40460;BME280;26164;51.138;16.952;2022-12-18T12:42:05;79962.63;;;-146.39;100.00
40460;BME280;26164;51.138;16.952;2022-12-18T12:44:56;79925.84;;;-146.39;100.00
40460;BME280;26164;51.138;16.952;2022-12-18T12:47:35;79929.91;;;-146.39;100.00
40460;BME280;26164;51.138;16.952;2022-12-18T12:50:11;79921.75;;;-146.39;100.00
40460;BME280;26164;51.138;16.952;2022-12-18T12:52:54;79905.41;;;-146.39;100.00
40460;BME280;26164;51.138;16.952;2022-12-18T12:55:25;79962.63;;;-146.39;100.00
40460;BME280;26164;51.138;16.952;2022-12-18T13:00:37;79987.13;;;-146.39;100.00
40460;BME280;26164;51.138;16.952;2022-12-18T13:06:04;79974.88;;;-146.39;100.00
40460;BME280;26164;51.138;16.952;2022-12-18T13:08:55;79983.03;;;-146.39;100.00
40460;BME280;26164;51.138;16.952;2022-12-18T13:11:48;79972.81;;;-146.39;100.00
40460;BME280;26164;51.138;16.952;2022-12-18T13:19:51;79972.81;;;-146.39;100.00
40460;BME280;26164;51.138;16.952;2022-12-18T13:22:23;79942.19;;;-146.39;100.00
40460;BME280;26164;51.138;16.952;2022-12-18T13:24:50;79931.97;;;-146.39;100.00
40460;BME280;26164;51.138;16.952;2022-12-18T13:38:23;80013.69;;;-146.39;100.00
40460;BME280;26164;51.138;16.952;2022-12-18T13:40:59;80013.69;;;-146.39;100.00
40460;BME280;26164;51.138;16.952;2022-12-18T13:43:41;80028.00;;;-146.39;100.00
40460;BME280;26164;51.138;16.952;2022-12-18T13:48:51;80021.88;;;-146.39;100.00
40460;BME280;26164;51.138;16.952;2022-12-18T13:51:19;80028.00;;;-146.39;100.00
40460;BME280;26164;51.138;16.952;2022-12-18T13:53:59;80050.47;;;-146.39;100.00
40460;BME280;26164;51.138;16.952;2022-12-18T13:56:32;80040.25;;;-146.39;100.00
40460;BME280;26164;51.138;16.952;2022-12-18T13:59:21;80034.13;;;-146.39;100.00
40460;BME280;26164;51.138;16.952;2022-12-18T14:01:58;80023.91;;;-146.39;100.00
40460;BME280;26164;51.138;16.952;2022-12-18T14:06:54;80058.66;;;-146.39;100.00
40460;BME280;26164;51.138;16.952;2022-12-18T14:09:25;80072.94;;;-146.39;100.00
40460;BME280;26164;51.138;16.952;2022-12-18T14:11:52;80091.34;;;-146.39;100.00
40460;BME280;26164;51.138;16.952;2022-12-18T14:14:44;80122.00;;;-146.39;100.00
40460;BME280;26164;51.138;16.952;2022-12-18T14:17:12;80134.25;;;-146.39;100.00